Time;durP1;ratioP1;P1;durP2;ratioP2;P2;SDS_P1;SDS_P2;PMS_P1;PMS_P2;Temp;Humidity;BMP_temperature;BMP_pressure;BME280_temperature;BME280_humidity;BME280_pressure;Samples;Min_cycle;Max_cycle;Signal;HPM_P1;HPM_P2
2021/10/07 00:00:58;;;;;;;74.45;22.98;;;;;;;2.82;72.45;102415.63;5114240;27;20047;-74
2021/10/07 00:03:23;;;;;;;60.55;22.25;;;;;;;2.75;72.97;102422.63;5116765;27;20036;-73
2021/10/07 00:05:49;;;;;;;63.90;22.38;;;;;;;2.70;73.60;102421.72;5125616;27;20462;-72
2021/10/07 00:08:15;;;;;;;58.85;20.80;;;;;;;2.71;73.25;102425.22;5134731;27;20507;-74
2021/10/07 00:10:41;;;;;;;73.13;24.73;;;;;;;2.71;73.47;102425.22;5116755;27;20031;-76
2021/10/07 00:13:07;;;;;;;59.85;20.85;;;;;;;2.70;73.27;102426.94;5127131;27;20046;-74
2021/10/07 00:15:33;;;;;;;47.55;20.05;;;;;;;2.69;73.40;102427.84;5118656;27;20050;-75
2021/10/07 00:17:59;;;;;;;67.95;22.80;;;;;;;2.64;72.79;102426.09;5115338;27;20491;-73
2021/10/07 00:20:25;;;;;;;62.47;21.95;;;;;;;2.59;73.51;102429.56;5118476;27;20083;-73
2021/10/07 00:22:51;;;;;;;62.45;23.27;;;;;;;2.54;73.57;102433.94;5116109;27;20035;-73
2021/10/07 00:25:17;;;;;;;66.35;22.02;;;;;;;2.56;73.92;102424.31;5113776;27;21029;-73
2021/10/07 00:27:43;;;;;;;53.30;21.52;;;;;;;2.54;73.55;102431.31;5115167;27;20476;-73
2021/10/07 00:30:16;;;;;;;46.80;19.15;;;;;;;2.58;74.16;102430.44;5128086;27;20043;-77
2021/10/07 00:40:49;;;;;;;60.00;22.95;;;;;;;2.43;73.53;102427.81;5049657;28;20056;-73
2021/10/07 00:43:15;;;;;;;60.25;22.15;;;;;;;2.42;73.91;102432.16;5064054;28;20048;-73
2021/10/07 00:45:41;;;;;;;53.95;20.58;;;;;;;2.40;74.01;102436.50;5049472;28;20044;-72
2021/10/07 00:48:06;;;;;;;52.60;19.75;;;;;;;2.42;74.56;102432.16;5059491;28;20041;-72
2021/10/07 00:50:32;;;;;;;57.38;19.65;;;;;;;2.42;74.33;102441.75;5062077;28;20033;-72
2021/10/07 00:52:58;;;;;;;55.47;21.95;;;;;;;2.38;73.74;102435.63;5068550;28;20052;-72
2021/10/07 00:55:25;;;;;;;58.78;22.60;;;;;;;2.36;73.85;102437.38;5067747;28;20052;-71
2021/10/07 00:57:50;;;;;;;67.45;22.65;;;;;;;2.30;72.97;102436.50;5035475;28;20040;-72
2021/10/07 01:00:16;;;;;;;60.47;22.60;;;;;;;2.24;72.99;102442.56;5068355;28;20621;-71
2021/10/07 01:02:42;;;;;;;54.03;22.48;;;;;;;2.22;73.07;102444.31;5067476;28;20036;-71
2021/10/07 01:05:08;;;;;;;58.58;22.85;;;;;;;2.18;73.19;102442.53;5068094;28;20056;-72
2021/10/07 01:07:34;;;;;;;65.97;22.02;;;;;;;2.15;73.06;102442.53;5056622;28;20087;-72
2021/10/07 01:10:00;;;;;;;63.90;23.73;;;;;;;2.11;73.23;102452.09;5068355;28;20102;-73
2021/10/07 01:12:25;;;;;;;68.63;22.58;;;;;;;2.09;73.16;102448.59;5099671;27;20385;-71
2021/10/07 01:14:56;;;;;;;77.05;24.05;;;;;;;2.08;73.83;102452.06;5132140;27;20047;-73
2021/10/07 01:17:30;;;;;;;65.47;23.98;;;;;;;2.04;73.38;102450.34;5120653;27;20050;-71
2021/10/07 01:20:01;;;;;;;60.00;22.42;;;;;;;2.02;74.10;102458.16;5114474;27;20496;-72
2021/10/07 01:22:29;;;;;;;63.45;22.83;;;;;;;2.01;74.15;102460.78;5114203;27;20067;-71
2021/10/07 01:24:55;;;;;;;60.45;22.95;;;;;;;1.99;73.49;102465.13;5132171;27;20407;-71
2021/10/07 01:27:24;;;;;;;61.20;22.02;;;;;;;1.99;74.07;102465.13;5129249;27;20449;-72
2021/10/07 01:29:58;;;;;;;68.10;24.88;;;;;;;1.97;73.72;102465.13;5129686;27;20050;-72
2021/10/07 01:32:24;;;;;;;61.10;23.63;;;;;;;1.98;74.28;102456.41;5124257;27;20048;-74
2021/10/07 01:34:50;;;;;;;74.47;22.73;;;;;;;1.96;74.44;102465.97;5111565;28;20461;-72
2021/10/07 01:37:17;;;;;;;65.10;22.35;;;;;;;1.96;74.03;102459.88;5111247;28;20043;-73
2021/10/07 01:39:42;;;;;;;63.75;22.77;;;;;;;1.95;74.19;102472.06;5111506;28;20088;-71
2021/10/07 01:42:08;;;;;;;58.80;23.00;;;;;;;1.94;73.92;102463.38;5126274;27;20039;-71
2021/10/07 01:44:34;;;;;;;60.60;21.23;;;;;;;1.89;74.55;102464.19;5126283;28;20499;-75
2021/10/07 01:47:00;;;;;;;59.70;21.30;;;;;;;1.82;73.74;102468.53;5113070;28;20039;-73
2021/10/07 01:49:26;;;;;;;51.53;18.92;;;;;;;1.76;74.37;102465.88;5111005;28;20115;-76
2021/10/07 01:51:52;;;;;;;64.60;20.23;;;;;;;1.71;74.10;102473.69;5119281;27;20040;-74
2021/10/07 01:54:18;;;;;;;56.63;19.77;;;;;;;1.72;74.75;102469.31;5111280;28;20046;-71
2021/10/07 01:56:45;;;;;;;55.03;20.83;;;;;;;1.73;75.01;102471.97;5113282;28;20058;-70
2021/10/07 01:59:10;;;;;;;54.20;20.95;;;;;;;1.70;74.84;102476.28;5115773;27;20143;-72
2021/10/07 02:01:37;;;;;;;51.10;20.48;;;;;;;1.68;74.39;102468.44;5119079;27;20080;-71
2021/10/07 02:04:04;;;;;;;59.05;21.00;;;;;;;1.65;73.90;102473.66;5124076;27;20050;-71
2021/10/07 02:06:30;;;;;;;59.88;21.80;;;;;;;1.61;74.08;102466.69;5119012;27;20046;-72
2021/10/07 02:08:57;;;;;;;66.68;21.88;;;;;;;1.61;73.85;102469.28;5115624;27;20054;-70
2021/10/07 02:11:41;;;;;;;56.80;21.52;;;;;;;1.61;73.70;102471.91;5129807;27;20429;-72
2021/10/07 02:14:07;;;;;;;58.50;21.42;;;;;;;1.56;73.23;102473.59;5126698;27;20043;-73
2021/10/07 02:16:33;;;;;;;55.35;21.67;;;;;;;1.51;73.59;102470.06;5128228;27;20043;-73
2021/10/07 02:18:59;;;;;;;57.58;20.90;;;;;;;1.45;73.56;102476.16;5135602;27;20047;-73
2021/10/07 02:21:25;;;;;;;67.80;22.35;;;;;;;1.40;73.68;102473.50;5130853;27;20100;-74
2021/10/07 02:23:51;;;;;;;52.97;20.48;;;;;;;1.34;74.02;102476.06;5123573;27;20091;-75
2021/10/07 02:26:17;;;;;;;58.38;21.55;;;;;;;1.30;74.14;102476.91;5115162;27;20044;-73
2021/10/07 02:28:43;;;;;;;71.32;44.60;;;;;;;1.31;74.65;102478.66;5124704;27;20068;-73
2021/10/07 02:31:08;;;;;;;59.10;22.08;;;;;;;1.35;74.59;102479.56;5120148;27;20039;-72
2021/10/07 02:33:34;;;;;;;60.80;22.88;;;;;;;1.35;74.41;102476.97;5114833;28;20087;-72
2021/10/07 02:36:00;;;;;;;60.15;21.33;;;;;;;1.34;74.10;102476.06;5121023;27;20043;-73
2021/10/07 02:38:26;;;;;;;58.35;21.92;;;;;;;1.33;74.84;102481.28;5127627;27;20042;-74
2021/10/07 02:40:52;;;;;;;53.67;20.80;;;;;;;1.31;74.16;102481.28;5124531;27;20574;-74
2021/10/07 02:43:17;;;;;;;58.45;22.20;;;;;;;1.30;74.40;102487.34;5134427;27;20042;-73
2021/10/07 02:45:43;;;;;;;54.95;20.95;;;;;;;1.29;74.08;102490.81;5135116;27;20050;-74
2021/10/07 02:48:09;;;;;;;58.53;20.02;;;;;;;1.23;74.16;102490.75;5134992;27;20407;-73
2021/10/07 02:50:37;;;;;;;68.50;22.10;;;;;;;1.17;74.36;102488.09;5114570;27;20468;-74
2021/10/07 02:53:02;;;;;;;73.05;22.60;;;;;;;1.13;74.80;102484.59;5117996;27;20035;-71
2021/10/07 02:55:28;;;;;;;57.38;21.33;;;;;;;1.07;73.80;102485.44;5134651;27;20495;-72
2021/10/07 02:57:54;;;;;;;54.63;20.92;;;;;;;1.03;73.87;102494.06;5134932;27;20439;-73
2021/10/07 03:00:20;;;;;;;64.07;22.10;;;;;;;1.00;73.95;102487.97;5130568;27;20116;-73
2021/10/07 03:02:46;;;;;;;60.47;20.52;;;;;;;0.95;74.02;102486.19;5117744;27;20051;-71
2021/10/07 03:05:13;;;;;;;59.63;22.38;;;;;;;0.93;74.26;102489.66;5131358;27;20043;-73
2021/10/07 03:07:40;;;;;;;69.13;21.83;;;;;;;0.90;74.33;102487.03;5114692;27;20043;-74
2021/10/07 03:10:08;;;;;;;59.75;20.65;;;;;;;0.88;74.96;102484.38;5119460;27;20114;-74
2021/10/07 03:12:34;;;;;;;53.97;21.55;;;;;;;0.90;74.43;102484.44;5112999;27;20074;-74
2021/10/07 03:15:00;;;;;;;53.83;21.65;;;;;;;0.92;74.50;102486.19;5114471;28;20419;-73
2021/10/07 03:17:26;;;;;;;54.45;20.17;;;;;;;0.95;74.65;102495.75;5115155;27;20044;-73
2021/10/07 03:19:53;;;;;;;60.95;21.15;;;;;;;0.98;74.75;102485.34;5122187;27;20071;-72
2021/10/07 03:22:21;;;;;;;57.30;21.40;;;;;;;1.00;74.64;102488.84;5115169;27;20523;-71
2021/10/07 03:24:50;;;;;;;57.10;23.65;;;;;;;1.01;74.82;102495.81;5130099;27;20038;-73
2021/10/07 03:27:16;;;;;;;59.72;22.40;;;;;;;0.96;74.00;102500.13;5114926;27;20035;-71
2021/10/07 03:29:42;;;;;;;60.70;22.50;;;;;;;0.90;74.12;102492.25;5125240;27;20039;-73
2021/10/07 03:32:07;;;;;;;57.78;20.35;;;;;;;0.83;74.29;102490.44;5116138;27;20027;-71
2021/10/07 03:34:33;;;;;;;64.95;21.67;;;;;;;0.80;74.31;102497.34;5119317;27;20043;-73
2021/10/07 03:36:59;;;;;;;67.47;22.33;;;;;;;0.79;74.36;102498.22;5125874;27;20036;-73
2021/10/07 03:39:25;;;;;;;58.97;20.90;;;;;;;0.75;74.64;102490.38;5132620;27;20099;-73
2021/10/07 03:41:51;;;;;;;58.85;19.70;;;;;;;0.69;74.27;102488.56;5132963;27;20415;-75
2021/10/07 03:44:17;;;;;;;55.45;21.05;;;;;;;0.65;74.29;102489.41;5113309;28;20079;-75
2021/10/07 03:46:42;;;;;;;52.05;19.30;;;;;;;0.64;74.49;102491.13;5113380;28;20035;-72
2021/10/07 03:49:10;;;;;;;56.63;22.60;;;;;;;0.63;74.52;102485.91;5114611;27;20047;-73
2021/10/07 03:51:36;;;;;;;62.83;20.88;;;;;;;0.66;74.62;102501.56;5113468;28;20127;-73
2021/10/07 03:54:01;;;;;;;57.38;20.58;;;;;;;0.89;74.12;102496.56;5114721;27;20462;-72
2021/10/07 03:56:27;;;;;;;57.67;20.20;;;;;;;1.38;74.40;102500.44;5113214;28;20044;-74
2021/10/07 03:58:53;;;;;;;69.93;20.55;;;;;;;1.93;72.60;102495.53;5114276;27;20532;-75
2021/10/07 04:01:19;;;;;;;51.13;18.67;;;;;;;2.50;70.59;102491.38;5113290;28;20040;-73
2021/10/07 04:03:45;;;;;;;53.17;19.42;;;;;;;3.02;68.42;102486.22;5125623;27;20491;-73
2021/10/07 04:06:11;;;;;;;52.97;19.55;;;;;;;3.58;66.81;102491.38;5133515;27;20039;-73
2021/10/07 04:08:37;;;;;;;49.55;23.00;;;;;;;4.21;64.96;102487.66;5134099;27;20043;-73
2021/10/07 04:11:03;;;;;;;54.20;18.45;;;;;;;4.84;62.90;102484.63;5131774;27;20491;-74
2021/10/07 04:13:28;;;;;;;59.42;18.88;;;;;;;5.43;61.17;102485.88;5133574;27;20045;-73
2021/10/07 04:15:54;;;;;;;49.78;18.23;;;;;;;5.95;59.84;102487.94;5133429;27;20050;-73
2021/10/07 04:18:20;;;;;;;48.95;23.92;;;;;;;6.54;57.80;102479.31;5124370;27;20499;-72
2021/10/07 04:20:48;;;;;;;50.42;18.50;;;;;;;7.15;56.61;102478.34;5133327;27;20054;-73
2021/10/07 04:23:33;;;;;;;54.30;20.17;;;;;;;7.93;54.42;102482.13;5132991;27;20075;-77
2021/10/07 04:25:59;;;;;;;49.95;18.25;;;;;;;8.57;52.94;102483.41;5114464;27;20499;-75
2021/10/07 04:28:24;;;;;;;49.30;20.73;;;;;;;9.14;50.63;102479.38;5111594;27;20047;-74
2021/10/07 04:30:50;;;;;;;55.55;18.80;;;;;;;9.83;48.90;102479.31;5131154;27;20126;-73
2021/10/07 04:33:16;;;;;;;54.25;18.63;;;;;;;10.27;47.45;102470.06;5131402;27;20039;-73
2021/10/07 04:35:42;;;;;;;55.22;19.30;;;;;;;10.99;46.18;102474.88;5133457;27;20152;-77
2021/10/07 04:38:08;;;;;;;56.55;20.42;;;;;;;11.75;44.17;102472.22;5132887;27;20133;-73
2021/10/07 04:40:36;;;;;;;51.70;19.85;;;;;;;12.33;42.66;102463.88;5129132;27;20047;-74
2021/10/07 04:43:03;;;;;;;43.17;20.60;;;;;;;12.75;41.53;102473.69;5132038;27;20541;-73
2021/10/07 04:45:29;;;;;;;48.63;19.73;;;;;;;13.27;40.63;102464.41;5133164;27;20095;-73
2021/10/07 04:47:54;;;;;;;56.95;20.05;;;;;;;13.66;39.58;102462.78;5132353;27;20043;-73
2021/10/07 04:50:20;;;;;;;55.55;21.15;;;;;;;14.11;38.16;102456.25;5131797;27;20039;-74
2021/10/07 04:52:46;;;;;;;67.80;21.83;;;;;;;14.44;37.53;102457.38;5133256;27;20604;-73
2021/10/07 04:55:12;;;;;;;53.20;20.23;;;;;;;14.78;36.99;102445.06;5131966;27;20073;-73
2021/10/07 04:57:38;;;;;;;66.07;20.35;;;;;;;15.30;36.18;102454.88;5112311;27;20467;-74
2021/10/07 05:00:06;;;;;;;52.58;22.23;;;;;;;15.90;34.96;102457.03;5112579;27;20389;-73
2021/10/07 05:02:35;;;;;;;45.75;21.75;;;;;;;16.37;33.81;102455.31;5130019;27;20500;-73
2021/10/07 05:05:01;;;;;;;53.05;21.90;;;;;;;16.72;33.29;102455.09;5127517;27;20410;-73
2021/10/07 05:07:27;;;;;;;56.92;23.17;;;;;;;17.14;32.79;102460.69;5126339;27;20035;-75
2021/10/07 05:09:52;;;;;;;57.28;21.70;;;;;;;17.56;31.95;102456.34;5121901;27;20117;-76
2021/10/07 05:12:18;;;;;;;52.25;22.00;;;;;;;17.71;31.44;102459.03;5114664;27;20059;-79
2021/10/07 05:14:44;;;;;;;63.85;22.83;;;;;;;18.03;31.28;102450.78;5111990;28;20051;-75
2021/10/07 05:17:10;;;;;;;55.65;21.65;;;;;;;18.41;30.73;102452.81;5123732;27;20155;-76
2021/10/07 05:19:35;;;;;;;61.22;23.80;;;;;;;18.85;30.00;102451.63;5118973;27;20126;-75
2021/10/07 05:22:01;;;;;;;50.47;22.02;;;;;;;19.09;29.53;102448.28;5132070;27;20369;-75
2021/10/07 05:24:27;;;;;;;58.20;22.40;;;;;;;19.30;29.30;102451.31;5117490;27;20043;-74
2021/10/07 05:26:53;;;;;;;58.47;23.92;;;;;;;19.48;28.79;102445.63;5110947;28;20036;-77
2021/10/07 05:29:19;;;;;;;70.30;26.30;;;;;;;19.64;28.67;102454.28;5112339;28;20046;-77
2021/10/07 05:31:45;;;;;;;61.50;24.33;;;;;;;20.24;27.94;102453.63;5125574;27;20488;-76
2021/10/07 05:34:10;;;;;;;55.47;23.65;;;;;;;20.75;26.91;102450.75;5129108;27;20460;-77
2021/10/07 05:36:36;;;;;;;59.72;23.05;;;;;;;20.97;26.84;102449.09;5109010;28;20042;-75
2021/10/07 05:39:02;;;;;;;60.70;24.92;;;;;;;21.52;25.87;102453.81;5111464;28;20584;-78
2021/10/07 05:41:28;;;;;;;79.88;25.35;;;;;;;22.04;25.13;102454.19;5128080;27;20031;-79
2021/10/07 05:43:54;;;;;;;62.08;25.55;;;;;;;21.86;25.45;102453.84;5126134;27;20603;-78
2021/10/07 05:46:19;;;;;;;59.10;25.10;;;;;;;22.50;24.83;102450.41;5131591;27;20050;-77
2021/10/07 05:48:45;;;;;;;59.63;23.95;;;;;;;23.05;24.29;102444.00;5132134;28;20126;-75
2021/10/07 05:51:11;;;;;;;65.82;24.05;;;;;;;23.71;23.58;102440.09;5132380;27;20043;-80
2021/10/07 05:53:37;;;;;;;77.50;38.97;;;;;;;24.19;23.23;102446.66;5132205;28;20147;-76
2021/10/07 05:56:06;;;;;;;69.35;24.27;;;;;;;24.04;22.98;102452.47;5132190;27;20509;-77
2021/10/07 05:58:32;;;;;;;58.95;25.13;;;;;;;24.04;23.08;102447.03;5132221;27;20050;-79
2021/10/07 06:00:58;;;;;;;63.57;25.23;;;;;;;24.09;22.75;102448.47;5131143;27;20042;-78
2021/10/07 06:03:24;;;;;;;58.72;25.45;;;;;;;23.70;22.93;102444.66;5131997;28;20543;-76
2021/10/07 06:05:49;;;;;;;66.72;25.60;;;;;;;23.96;22.41;102446.88;5132056;27;20039;-77
2021/10/07 06:08:15;;;;;;;49.35;25.50;;;;;;;23.20;22.98;102441.84;5131994;28;20039;-76
2021/10/07 06:10:41;;;;;;;49.63;24.48;;;;;;;22.88;23.07;102448.13;5132506;27;20047;-78
2021/10/07 06:13:07;;;;;;;49.42;25.60;;;;;;;22.81;23.37;102445.13;5132077;27;20065;-78
2021/10/07 06:15:33;;;;;;;42.88;23.80;;;;;;;22.78;23.31;102442.69;5113809;28;20074;-82
2021/10/07 06:17:59;;;;;;;39.78;23.08;;;;;;;23.00;22.97;102436.28;5132432;27;20043;-78
2021/10/07 06:22:54;;;;;;;69.40;28.80;;;;;;;22.76;23.07;102439.25;5131409;27;20284;-78
2021/10/07 06:25:20;;;;;;;56.30;28.00;;;;;;;23.16;22.74;102440.41;5131639;27;20112;-77
2021/10/07 06:27:47;;;;;;;57.00;24.67;;;;;;;23.24;22.54;102437.88;5132399;27;20047;-79
2021/10/07 06:30:13;;;;;;;57.85;26.13;;;;;;;23.30;22.75;102440.06;5130595;28;20047;-79
2021/10/07 06:32:39;;;;;;;64.85;27.23;;;;;;;24.40;21.73;102438.44;5131320;27;20043;-78
2021/10/07 06:35:06;;;;;;;52.65;25.88;;;;;;;24.71;21.06;102444.56;5131842;27;20050;-77
2021/10/07 06:37:31;;;;;;;59.42;28.10;;;;;;;24.79;20.97;102443.84;5113094;28;20039;-77
2021/10/07 06:39:57;;;;;;;47.63;24.42;;;;;;;25.17;20.43;102443.91;5132155;27;20141;-79
2021/10/07 06:42:23;;;;;;;57.67;26.02;;;;;;;24.90;21.06;102448.25;5131667;27;20084;-79
2021/10/07 06:44:49;;;;;;;44.42;24.73;;;;;;;25.25;20.96;102445.91;5131779;27;20519;-78
2021/10/07 06:47:14;;;;;;;45.53;26.17;;;;;;;25.86;20.22;102443.66;5132239;27;20047;-80
2021/10/07 06:49:40;;;;;;;43.88;27.20;;;;;;;25.64;19.58;102446.59;5116829;27;20074;-78
2021/10/07 06:52:06;;;;;;;48.50;27.17;;;;;;;25.12;20.29;102452.50;5131782;27;20050;-79
2021/10/07 06:54:32;;;;;;;46.10;25.60;;;;;;;25.21;20.46;102453.47;5115661;27;20122;-77
2021/10/07 06:56:58;;;;;;;46.90;25.97;;;;;;;24.78;20.33;102452.13;5118502;27;20047;-75
2021/10/07 06:59:24;;;;;;;48.65;24.50;;;;;;;24.82;20.48;102448.97;5127193;27;20473;-76
2021/10/07 07:01:50;;;;;;;34.70;21.17;;;;;;;24.58;20.59;102445.84;5114340;28;20587;-75
2021/10/07 07:04:17;;;;;;;43.33;22.70;;;;;;;24.60;20.41;102451.94;5114541;28;20119;-76
2021/10/07 07:06:44;;;;;;;46.42;22.90;;;;;;;24.90;20.13;102453.66;5114476;28;20095;-77
2021/10/07 07:09:10;;;;;;;39.03;23.08;;;;;;;24.93;19.91;102458.78;5113152;28;20144;-77
2021/10/07 07:11:36;;;;;;;38.42;21.85;;;;;;;25.13;19.40;102447.91;5114612;28;20058;-78
2021/10/07 07:14:02;;;;;;;46.22;24.15;;;;;;;25.28;19.61;102451.84;5114725;28;20040;-77
2021/10/07 07:16:29;;;;;;;48.27;25.37;;;;;;;25.25;19.62;102452.16;5113884;28;20441;-79
2021/10/07 07:18:55;;;;;;;44.63;24.98;;;;;;;25.07;19.42;102449.34;5114617;28;20108;-79
2021/10/07 07:21:23;;;;;;;41.60;23.63;;;;;;;26.22;18.60;102443.72;5114497;27;20135;-77
2021/10/07 07:23:52;;;;;;;38.83;22.15;;;;;;;27.24;17.81;102450.53;5114528;28;20050;-78
2021/10/07 07:26:18;;;;;;;46.13;22.77;;;;;;;26.92;18.32;102452.03;5114394;28;20039;-78
2021/10/07 07:28:44;;;;;;;44.95;23.33;;;;;;;27.46;17.41;102442.88;5114212;28;20050;-78
2021/10/07 07:31:10;;;;;;;36.08;22.25;;;;;;;27.05;17.98;102439.88;5114819;28;20455;-76
2021/10/07 07:33:36;;;;;;;37.03;21.38;;;;;;;26.40;18.29;102441.03;5114530;28;20036;-76
2021/10/07 07:36:02;;;;;;;41.55;22.02;;;;;;;26.45;18.02;102449.56;5112974;28;20600;-75
2021/10/07 07:38:28;;;;;;;50.72;24.23;;;;;;;26.25;18.49;102438.00;5114618;28;20122;-77
2021/10/07 07:40:54;;;;;;;44.05;23.20;;;;;;;27.15;17.89;102434.34;5112998;28;20084;-78
2021/10/07 07:43:20;;;;;;;47.60;23.25;;;;;;;27.48;17.33;102443.56;5114332;28;20077;-79
2021/10/07 07:45:50;;;;;;;49.67;21.33;;;;;;;27.84;16.78;102446.09;5112662;28;20036;-79
2021/10/07 07:48:17;;;;;;;46.72;20.17;;;;;;;27.72;15.96;102450.13;5114041;28;20051;-77
2021/10/07 07:50:43;;;;;;;50.38;19.50;;;;;;;27.12;16.53;102449.09;5114199;28;20096;-80
2021/10/07 07:53:10;;;;;;;52.47;19.25;;;;;;;26.62;16.65;102440.56;5095647;28;20142;-78
2021/10/07 07:55:37;;;;;;;32.83;13.50;;;;;;;26.56;15.69;102434.91;5095445;28;20048;-78
2021/10/07 07:58:03;;;;;;;34.75;15.13;;;;;;;26.98;16.05;102436.09;5114507;28;20131;-80
2021/10/07 08:00:29;;;;;;;42.65;18.30;;;;;;;27.19;15.72;102435.72;5113464;28;20055;-76
2021/10/07 08:02:55;;;;;;;60.05;20.38;;;;;;;27.24;15.88;102433.38;5113383;28;20130;-77
2021/10/07 08:05:22;;;;;;;46.75;19.80;;;;;;;27.41;16.48;102439.78;5113803;28;20040;-79
2021/10/07 08:07:47;;;;;;;44.60;18.93;;;;;;;27.14;15.31;102425.31;5114664;28;20496;-76
2021/10/07 08:10:13;;;;;;;22.77;11.80;;;;;;;25.77;15.94;102437.28;5148584;27;20046;-79
2021/10/07 08:12:39;;;;;;;34.03;13.52;;;;;;;27.15;15.29;102429.75;5114676;28;20543;-78
2021/10/07 08:15:07;;;;;;;24.58;14.07;;;;;;;27.33;14.99;102428.81;5115821;28;20064;-80
2021/10/07 08:17:36;;;;;;;30.38;15.10;;;;;;;27.11;14.66;102431.09;5114571;28;20050;-79
2021/10/07 08:20:06;;;;;;;28.92;14.98;;;;;;;27.46;14.97;102437.44;5114374;28;20407;-78
2021/10/07 08:22:31;;;;;;;36.15;14.95;;;;;;;27.87;15.05;102426.69;5113808;28;20048;-77
2021/10/07 08:24:57;;;;;;;29.33;14.77;;;;;;;28.28;14.51;102436.03;5112493;28;20047;-79
2021/10/07 08:27:26;;;;;;;18.08;9.70;;;;;;;27.58;14.02;102424.41;5113149;28;20055;-79
2021/10/07 08:29:53;;;;;;;12.77;9.13;;;;;;;27.03;14.65;102425.59;5111643;28;20044;-80
2021/10/07 08:32:19;;;;;;;20.00;8.88;;;;;;;28.32;13.50;102431.94;5111565;28;20096;-76
2021/10/07 08:34:45;;;;;;;18.87;8.33;;;;;;;27.39;13.78;102433.63;5113267;28;20075;-79
2021/10/07 08:37:11;;;;;;;13.83;8.47;;;;;;;25.58;14.76;102447.22;5113136;28;20147;-80
2021/10/07 08:39:37;;;;;;;15.50;8.90;;;;;;;25.71;15.21;102440.59;5112675;28;20447;-77
2021/10/07 08:42:03;;;;;;;15.23;8.55;;;;;;;26.66;15.00;102434.81;5113048;28;20055;-78
2021/10/07 08:44:30;;;;;;;16.10;10.05;;;;;;;25.91;14.93;102441.34;5112743;28;20116;-77
2021/10/07 08:46:56;;;;;;;14.35;10.23;;;;;;;25.90;15.72;102432.34;5112447;28;20121;-78
2021/10/07 08:49:24;;;;;;;22.90;10.02;;;;;;;25.74;15.64;102445.72;5112757;28;20036;-79
2021/10/07 08:51:50;;;;;;;14.32;9.20;;;;;;;24.28;16.51;102442.25;5113001;28;20042;-78
2021/10/07 08:54:17;;;;;;;13.40;9.25;;;;;;;25.37;16.18;102433.03;5112419;28;20079;-78
2021/10/07 08:56:43;;;;;;;12.98;8.80;;;;;;;26.04;15.92;102430.13;5112266;28;20039;-80
2021/10/07 08:59:09;;;;;;;14.10;9.57;;;;;;;25.95;15.92;102426.47;5113456;27;20455;-78
2021/10/07 09:01:40;;;;;;;30.35;16.95;;;;;;;25.00;15.60;102422.00;5102435;27;20833;-80
2021/10/07 09:04:21;;;;;;;15.15;9.57;;;;;;;25.21;15.87;102429.09;5095642;28;20043;-80
2021/10/07 09:07:02;;;;;;;14.77;8.57;;;;;;;25.45;15.66;102422.31;5121850;27;20039;-77
2021/10/07 09:09:29;;;;;;;14.15;8.48;;;;;;;25.42;15.76;102425.31;5131396;27;20130;-78
2021/10/07 09:11:56;;;;;;;16.83;10.80;;;;;;;25.21;15.98;102418.25;5124646;27;20116;-79
2021/10/07 09:14:27;;;;;;;13.20;8.77;;;;;;;24.86;16.13;102425.16;5111024;27;20136;-83
2021/10/07 09:16:55;;;;;;;16.60;8.18;;;;;;;26.15;15.25;102414.50;5129084;27;20035;-80
2021/10/07 09:19:32;;;;;;;12.63;8.65;;;;;;;27.18;14.17;102418.56;5132447;27;20476;-78
2021/10/07 09:22:24;;;;;;;15.27;8.27;;;;;;;27.50;13.97;102427.91;5114096;27;20045;-81
2021/10/07 09:24:52;;;;;;;15.32;8.32;;;;;;;26.16;14.79;102426.22;5132616;27;20047;-80
2021/10/07 09:27:23;;;;;;;13.02;8.48;;;;;;;25.85;15.52;102418.41;5132407;27;20490;-79
2021/10/07 09:29:50;;;;;;;14.88;8.00;;;;;;;26.53;14.32;102408.06;5132286;27;20069;-78
2021/10/07 09:32:28;;;;;;;18.05;8.80;;;;;;;25.98;14.56;102394.47;5131650;27;20039;-78
2021/10/07 09:34:56;;;;;;;15.25;8.88;;;;;;;26.73;14.22;102384.28;5132621;27;20042;-78
2021/10/07 09:37:40;;;;;;;;;;;;;;;26.92;14.69;102381.41;5133331;27;20133;-80
2021/10/07 09:40:18;;;;;;;15.45;9.00;;;;;;;25.30;14.75;102390.25;5114422;27;19915;-79
2021/10/07 09:42:53;;;;;;;17.67;8.77;;;;;;;26.06;15.42;102369.34;5132616;27;20571;-79
2021/10/07 09:45:21;;;;;;;17.42;8.30;;;;;;;27.07;14.58;102380.81;5132937;27;20039;-79
2021/10/07 09:47:48;;;;;;;19.45;8.85;;;;;;;27.25;14.30;102376.16;5132626;27;20046;-82
2021/10/07 09:50:35;;;;;;;15.98;8.68;;;;;;;26.74;15.18;102373.31;5131425;27;20054;-80
2021/10/07 09:53:02;;;;;;;15.23;8.65;;;;;;;26.10;14.93;102380.72;5132679;27;20187;-78
2021/10/07 09:55:45;;;;;;;14.43;8.23;;;;;;;25.24;15.31;102380.00;5132579;27;20432;-78
2021/10/07 09:58:16;;;;;;;14.55;8.52;;;;;;;24.57;15.78;102384.59;5132745;28;20077;-78
2021/10/07 10:00:45;;;;;;;14.55;8.90;;;;;;;23.14;16.75;102388.34;5130874;28;20118;-80
2021/10/07 10:03:11;;;;;;;18.17;8.55;;;;;;;23.07;17.06;102388.88;5113741;27;20039;-82
2021/10/07 10:05:39;;;;;;;11.57;8.05;;;;;;;23.46;17.30;102390.94;5109794;28;20071;-82
2021/10/07 10:08:10;;;;;;;16.77;8.70;;;;;;;23.42;16.93;102381.41;5111000;28;20048;-80
2021/10/07 10:10:37;;;;;;;13.70;7.45;;;;;;;24.00;17.06;102377.16;5110151;28;20047;-77
2021/10/07 10:13:04;;;;;;;14.98;8.18;;;;;;;23.10;17.29;102372.44;5111072;28;20135;-80
2021/10/07 10:15:30;;;;;;;20.75;7.97;;;;;;;22.67;18.45;102365.38;5093436;28;20051;-78
2021/10/07 10:17:56;;;;;;;13.73;7.53;;;;;;;22.26;18.43;102362.47;5112187;28;20044;-82
2021/10/07 10:20:28;;;;;;;15.82;8.50;;;;;;;22.65;18.32;102359.22;5110956;28;20043;-78
2021/10/07 10:22:58;;;;;;;13.55;8.57;;;;;;;22.35;18.80;102360.81;5113537;28;20599;-78
2021/10/07 10:25:25;;;;;;;14.07;8.63;;;;;;;21.92;18.46;102351.81;5114500;28;20041;-78
2021/10/07 10:27:52;;;;;;;12.23;7.77;;;;;;;22.32;18.51;102349.44;5115587;28;20046;-78
2021/10/07 10:30:24;;;;;;;16.35;8.13;;;;;;;22.07;18.70;102357.75;5115847;28;20491;-79
2021/10/07 10:32:51;;;;;;;17.20;8.57;;;;;;;22.31;18.35;102348.59;5115369;28;20590;-81
2021/10/07 10:35:33;;;;;;;14.77;7.88;;;;;;;22.38;19.00;102344.44;5115540;27;20425;-79
2021/10/07 10:38:00;;;;;;;14.18;7.97;;;;;;;22.24;18.84;102342.00;5115467;28;20043;-78
2021/10/07 10:40:26;;;;;;;15.27;8.27;;;;;;;22.36;18.85;102348.22;5115145;28;20051;-78
2021/10/07 10:43:16;;;;;;;18.20;8.43;;;;;;;20.79;19.29;102360.75;5115162;28;20039;-77
2021/10/07 10:46:05;;;;;;;15.88;7.93;;;;;;;19.39;20.91;102358.56;5114758;28;20093;-77
2021/10/07 10:48:49;;;;;;;15.32;7.38;;;;;;;19.00;21.33;102358.56;5105199;28;20092;-78
2021/10/07 10:51:16;;;;;;;15.40;7.70;;;;;;;18.91;21.74;102349.34;5115050;28;20051;-79
2021/10/07 10:54:10;;;;;;;12.20;7.43;;;;;;;18.38;22.19;102356.53;5114885;28;20108;-79
2021/10/07 10:57:00;;;;;;;15.25;7.10;;;;;;;18.00;22.56;102351.91;5112759;28;20051;-78
2021/10/07 10:59:28;;;;;;;13.07;7.35;;;;;;;18.32;22.50;102340.84;5114697;28;20078;-80
2021/10/07 11:02:26;;;;;;;14.80;7.70;;;;;;;17.87;23.00;102344.66;5113525;28;20543;-75
2021/10/07 11:04:53;;;;;;;15.35;6.47;;;;;;;17.94;23.12;102334.41;5051425;28;20053;-78
2021/10/07 11:07:22;;;;;;;13.88;6.85;;;;;;;17.60;22.71;102336.59;5051629;28;20061;-76
2021/10/07 11:09:56;;;;;;;19.88;8.13;;;;;;;17.49;23.30;102347.97;5051475;28;20087;-77
2021/10/07 11:12:23;;;;;;;25.77;10.18;;;;;;;16.96;23.64;102345.03;5051376;28;20060;-78
2021/10/07 11:14:50;;;;;;;11.00;6.35;;;;;;;16.62;24.10;102341.69;5035229;28;20057;-79
2021/10/07 11:17:20;;;;;;;12.57;7.07;;;;;;;16.20;24.56;102346.81;5051713;28;20052;-78
2021/10/07 11:19:46;;;;;;;11.27;6.30;;;;;;;16.48;24.70;102339.84;5051431;28;20052;-78
2021/10/07 11:22:12;;;;;;;17.33;6.75;;;;;;;16.94;24.10;102326.38;5051590;28;20059;-80
2021/10/07 11:24:51;;;;;;;12.60;7.22;;;;;;;17.00;24.67;102326.97;5051224;28;20076;-75
2021/10/07 11:27:31;;;;;;;15.27;7.45;;;;;;;17.05;24.80;102314.19;5050580;28;20402;-78